createdAt,value
2022-11-24T00:01:21.695Z,100338.59
2022-11-24T00:04:16.028Z,100324.38
2022-11-24T00:06:43.260Z,100333.25
2022-11-24T00:09:10.703Z,100325.38
2022-11-24T00:11:38.151Z,100334.22
2022-11-24T00:14:06.293Z,100318.31
2022-11-24T00:16:36.126Z,100332.56
2022-11-24T00:19:05.784Z,100337.06
2022-11-24T00:21:33.372Z,100350.44
2022-11-24T00:24:00.969Z,100346.91
2022-11-24T00:26:30.878Z,100342.53
2022-11-24T00:29:01.823Z,100344.34
2022-11-24T00:31:34.405Z,100351.38
2022-11-24T00:34:05.260Z,100353.38
2022-11-24T00:36:34.060Z,100364.06
2022-11-24T00:39:04.712Z,100367.59
2022-11-24T00:41:32.668Z,100364.06
2022-11-24T00:44:00.651Z,100364.06
2022-11-24T00:46:28.538Z,100371.25
2022-11-24T00:48:56.493Z,100370.41
2022-11-24T00:51:27.879Z,100365.91
2022-11-24T00:53:56.402Z,100360.66
2022-11-24T00:56:25.159Z,100345.47
2022-11-24T00:58:52.513Z,100339.25
2022-11-24T01:01:22.804Z,100349.94
2022-11-24T01:03:50.999Z,100353.63
2022-11-24T01:06:20.968Z,100363.47
2022-11-24T01:08:48.486Z,100367.00
2022-11-24T01:11:21.881Z,100374.19
2022-11-24T01:13:52.910Z,100378.69
2022-11-24T01:16:32.880Z,100381.34
2022-11-24T01:19:01.075Z,100392.06
2022-11-24T01:21:28.365Z,100394.75
2022-11-24T01:23:55.597Z,100395.59
2022-11-24T01:26:23.161Z,100409.09
2022-11-24T01:28:58.400Z,100417.97
2022-11-24T01:31:26.940Z,100417.13
2022-11-24T01:33:54.319Z,100425.16
2022-11-24T01:36:22.388Z,100420.75
2022-11-24T01:38:49.792Z,100420.75
2022-11-24T01:41:20.605Z,100427.94
2022-11-24T01:43:48.611Z,100424.41
2022-11-24T01:46:33.510Z,100424.41
2022-11-24T01:49:26.132Z,100433.28
2022-11-24T01:52:01.325Z,100433.28
2022-11-24T01:54:32.667Z,100435.13
2022-11-24T01:57:21.207Z,100443.28
2022-11-24T01:59:52.752Z,100449.47
2022-11-24T02:02:28.508Z,100452.16
2022-11-24T02:04:59.670Z,100454.84
2022-11-24T02:07:27.426Z,100456.66
2022-11-24T02:10:10.582Z,100465.69
2022-11-24T02:12:41.171Z,100463.97
2022-11-24T02:15:08.858Z,100469.19
2022-11-24T02:17:36.160Z,100467.47
2022-11-24T02:20:07.850Z,100480.84
2022-11-24T02:22:56.458Z,100493.38
2022-11-24T02:25:46.088Z,100498.75
2022-11-24T02:28:17.332Z,100495.22
2022-11-24T02:30:44.843Z,100497.03
2022-11-24T02:33:13.153Z,100501.56
2022-11-24T02:35:40.409Z,100515.78
2022-11-24T02:38:13.713Z,100517.59
2022-11-24T02:40:46.378Z,100529.28
2022-11-24T02:43:17.754Z,100525.63
2022-11-24T02:45:45.025Z,100537.31
2022-11-24T02:48:14.300Z,100539.13
2022-11-24T02:50:41.618Z,100542.53
2022-11-24T02:53:08.988Z,100541.81
2022-11-24T02:55:36.269Z,100535.59
2022-11-24T02:58:03.847Z,100538.25
2022-11-24T03:00:31.046Z,100538.25
2022-11-24T03:02:58.680Z,100537.41
2022-11-24T03:05:26.011Z,100539.25
2022-11-24T03:07:53.303Z,100541.91
2022-11-24T03:10:21.117Z,100542.91
2022-11-24T03:12:48.413Z,100548.25
2022-11-24T03:15:15.832Z,100540.09
2022-11-24T03:17:43.225Z,100540.22
2022-11-24T03:20:11.096Z,100540.22
2022-11-24T03:22:38.471Z,100550.94
2022-11-24T03:25:06.073Z,100557.25
2022-11-24T03:27:33.370Z,100559.94
2022-11-24T03:30:00.677Z,100556.28
2022-11-24T03:32:27.918Z,100562.63
2022-11-24T03:34:55.233Z,100566.25
2022-11-24T03:37:22.644Z,100562.72
2022-11-24T03:39:49.939Z,100569.78
2022-11-24T03:42:17.191Z,100577.81
2022-11-24T03:44:44.506Z,100577.94
2022-11-24T03:47:12.423Z,100593.97
2022-11-24T03:49:41.463Z,100582.44
2022-11-24T03:52:09.020Z,100584.13
2022-11-24T03:54:36.485Z,100579.75
2022-11-24T03:57:03.784Z,100583.28
2022-11-24T03:59:31.061Z,100576.22
2022-11-24T04:01:58.471Z,100581.44
2022-11-24T04:04:25.798Z,100579.75
2022-11-24T04:06:52.989Z,100581.59
2022-11-24T04:09:20.269Z,100574.53
2022-11-24T04:12:06.081Z,100575.38
2022-11-24T04:14:33.718Z,100575.50
2022-11-24T04:17:01.207Z,100589.75
2022-11-24T04:19:28.439Z,100589.75
2022-11-24T04:21:56.402Z,100574.66
2022-11-24T04:24:23.582Z,100588.88
2022-11-24T04:26:50.826Z,100580.00
2022-11-24T04:29:18.090Z,100586.19
2022-11-24T04:31:45.483Z,100580.84
2022-11-24T04:34:12.801Z,100576.47
2022-11-24T04:36:41.031Z,100570.28
2022-11-24T04:39:23.849Z,100576.47
2022-11-24T04:41:53.741Z,100575.63
2022-11-24T04:44:20.983Z,100576.59
2022-11-24T04:46:48.407Z,100585.47
2022-11-24T04:49:15.637Z,100582.81
2022-11-24T04:51:43.257Z,100589.97
2022-11-24T04:54:12.534Z,100597.03
2022-11-24T04:56:41.163Z,100590.84
2022-11-24T04:59:15.045Z,100603.34
2022-11-24T05:01:43.657Z,100613.06
2022-11-24T05:04:12.564Z,100606.03
2022-11-24T05:06:40.336Z,100605.19
2022-11-24T05:09:08.200Z,100620.38
2022-11-24T05:11:35.444Z,100633.63
2022-11-24T05:14:02.687Z,100638.97
2022-11-24T05:16:30.022Z,100632.78
2022-11-24T05:18:57.438Z,100632.78
2022-11-24T05:21:24.759Z,100637.28
2022-11-24T05:23:52.074Z,100629.25
2022-11-24T05:26:19.403Z,100637.28
2022-11-24T05:28:46.784Z,100638.22
2022-11-24T05:31:14.097Z,100648.94
2022-11-24T05:33:43.330Z,100650.75
2022-11-24T05:36:30.662Z,100658.78
2022-11-24T05:38:57.929Z,100658.78
2022-11-24T05:41:25.468Z,100668.63
2022-11-24T05:43:53.087Z,100679.34
2022-11-24T05:46:20.471Z,100670.47
2022-11-24T05:48:47.866Z,100676.78
2022-11-24T05:51:15.240Z,100678.50
2022-11-24T05:53:42.509Z,100680.31
2022-11-24T05:56:09.769Z,100674.13
2022-11-24T05:58:37.116Z,100687.50
2022-11-24T06:01:07.610Z,100691.00
2022-11-24T06:03:34.856Z,100693.69
2022-11-24T06:06:02.445Z,100695.50
2022-11-24T06:08:31.412Z,100710.72
2022-11-24T06:11:17.212Z,100720.56
2022-11-24T06:13:46.133Z,100720.56
2022-11-24T06:16:13.771Z,100723.25
2022-11-24T06:18:41.357Z,100719.69
2022-11-24T06:21:11.620Z,100730.28
2022-11-24T06:23:39.919Z,100725.91
2022-11-24T06:26:07.259Z,100726.03
2022-11-24T06:28:34.713Z,100738.41
2022-11-24T06:31:04.984Z,100740.25
2022-11-24T06:33:37.533Z,100739.38
2022-11-24T06:36:07.369Z,100738.53
2022-11-24T06:38:36.119Z,100736.72
2022-11-24T06:41:09.555Z,100745.59
2022-11-24T06:43:37.187Z,100745.72
2022-11-24T06:46:05.062Z,100758.25
2022-11-24T06:48:32.704Z,100760.78
2022-11-24T06:51:02.073Z,100753.75
2022-11-24T06:53:38.109Z,100764.44
2022-11-24T06:56:16.182Z,100770.63
2022-11-24T06:58:46.326Z,100767.97
2022-11-24T07:01:27.527Z,100778.78
2022-11-24T07:03:56.233Z,100784.16
2022-11-24T07:06:25.383Z,100787.66
2022-11-24T07:08:53.270Z,100785.84
2022-11-24T07:11:22.868Z,100790.34
2022-11-24T07:13:55.157Z,100788.66
2022-11-24T07:16:27.230Z,100786.81
2022-11-24T07:18:55.188Z,100785.97
2022-11-24T07:21:24.273Z,100794.84
2022-11-24T07:23:56.553Z,100802.03
2022-11-24T07:26:24.841Z,100809.16
2022-11-24T07:28:52.571Z,100812.72
2022-11-24T07:31:21.650Z,100816.25
2022-11-24T07:33:50.649Z,100825.13
2022-11-24T07:36:18.285Z,100834.00
2022-11-24T07:38:46.052Z,100837.63
2022-11-24T07:41:15.162Z,100843.00
2022-11-24T07:43:42.693Z,100840.31
2022-11-24T07:46:12.774Z,100850.03
2022-11-24T07:48:40.450Z,100852.72
2022-11-24T07:51:09.114Z,100853.69
2022-11-24T07:53:37.627Z,100863.41
2022-11-24T07:56:06.464Z,100863.41
2022-11-24T07:58:36.268Z,100873.13
2022-11-24T08:01:18.069Z,100878.47
2022-11-24T08:03:46.662Z,100878.47
2022-11-24T08:06:36.284Z,100869.47
2022-11-24T08:09:02.214Z,100882.84
2022-11-24T08:11:31.471Z,100890.03
2022-11-24T08:13:58.832Z,100894.44
2022-11-24T08:16:26.317Z,100888.94
2022-11-24T08:18:55.127Z,100894.19
2022-11-24T08:21:23.619Z,100886.06
2022-11-24T08:23:56.061Z,100890.44
2022-11-24T08:26:25.112Z,100886.78
2022-11-24T08:28:58.424Z,100890.19
2022-11-24T08:31:32.867Z,100890.06
2022-11-24T08:34:01.563Z,100883.88
2022-11-24T08:36:29.112Z,100884.59
2022-11-24T08:38:58.017Z,100878.41
2022-11-24T08:41:26.352Z,100887.19
2022-11-24T08:43:56.544Z,100883.53
2022-11-24T08:46:24.234Z,100879.03
2022-11-24T08:48:53.737Z,100880.84
2022-11-24T08:51:24.489Z,100877.19
2022-11-24T08:53:56.857Z,100878.03
2022-11-24T08:56:25.258Z,100875.38
2022-11-24T08:58:53.886Z,100872.69
2022-11-24T09:01:21.595Z,100877.19
2022-11-24T09:03:51.253Z,100866.97
2022-11-24T09:06:24.858Z,100883.38
2022-11-24T09:08:54.311Z,100884.69
2022-11-24T09:11:21.826Z,100887.47
2022-11-24T09:13:49.665Z,100887.59
2022-11-24T09:16:22.869Z,100885.78
2022-11-24T09:19:03.439Z,100885.66
2022-11-24T09:21:34.344Z,100894.31
2022-11-24T09:24:01.797Z,100898.59
2022-11-24T09:26:32.325Z,100908.19
2022-11-24T09:29:00.825Z,100899.16
2022-11-24T09:31:34.285Z,100902.59
2022-11-24T09:34:04.168Z,100903.44
2022-11-24T09:36:34.943Z,100906.88
2022-11-24T09:39:02.688Z,100913.09
2022-11-24T09:41:49.524Z,100915.75
2022-11-24T09:44:49.454Z,100922.69
2022-11-24T09:47:54.579Z,100919.91
2022-11-24T09:50:25.429Z,100919.06
2022-11-24T09:53:18.860Z,100911.03
2022-11-24T09:55:53.780Z,100907.38
2022-11-24T09:59:02.798Z,100906.41
2022-11-24T10:01:35.112Z,100912.59
2022-11-24T10:04:06.644Z,100911.75
2022-11-24T10:07:00.481Z,100915.28
2022-11-24T10:09:45.838Z,100916.13
2022-11-24T10:12:55.350Z,100923.31
2022-11-24T10:15:52.292Z,100928.66
2022-11-24T10:18:41.973Z,100926.72
2022-11-24T10:21:29.514Z,100920.53
2022-11-24T10:24:22.982Z,100924.06
2022-11-24T10:27:04.007Z,100929.41
2022-11-24T10:29:37.075Z,100927.56
2022-11-24T10:32:06.329Z,100928.44
2022-11-24T10:34:43.826Z,100925.75
2022-11-24T10:37:11.172Z,100921.25
2022-11-24T10:40:00.059Z,100926.59
2022-11-24T10:42:38.090Z,100929.28
2022-11-24T10:45:17.346Z,100944.47
2022-11-24T10:47:46.310Z,100941.81
2022-11-24T10:50:33.733Z,100940.09
2022-11-24T10:53:24.713Z,100945.34
2022-11-24T10:55:55.155Z,100952.50
2022-11-24T10:58:24.846Z,100954.34
2022-11-24T11:00:52.884Z,100954.34
2022-11-24T11:03:23.314Z,100946.19
2022-11-24T11:05:53.961Z,100945.34
2022-11-24T11:08:22.662Z,100946.19
2022-11-24T11:11:07.469Z,100939.97
2022-11-24T11:13:34.731Z,100943.50
2022-11-24T11:16:22.903Z,100948.84
2022-11-24T11:18:50.417Z,100949.72
2022-11-24T11:21:39.632Z,100937.31
2022-11-24T11:24:18.492Z,100943.50
2022-11-24T11:26:45.810Z,100926.47
2022-11-24T11:35:28.200Z,100930.13
2022-11-24T11:38:01.976Z,100932.81
2022-11-24T11:40:31.789Z,100925.63
2022-11-24T11:43:17.741Z,100932.81
2022-11-24T11:45:59.840Z,100925.75
2022-11-24T11:48:35.076Z,100933.78
2022-11-24T11:51:24.015Z,100935.47
2022-11-24T11:54:17.241Z,100932.81
2022-11-24T11:56:47.405Z,100924.78
2022-11-24T11:59:27.042Z,100931.94
2022-11-24T12:02:18.849Z,100929.28
2022-11-24T12:04:56.974Z,100933.78
2022-11-24T12:07:47.409Z,100939.97
2022-11-24T12:10:39.041Z,100934.63
2022-11-24T12:13:18.537Z,100935.47
2022-11-24T12:15:56.241Z,100943.50
2022-11-24T12:21:35.715Z,100939.13
2022-11-24T12:24:30.572Z,100934.63
2022-11-24T12:27:25.353Z,100943.50
2022-11-24T12:30:13.006Z,100933.66
2022-11-24T12:32:49.406Z,100939.97
2022-11-24T12:35:28.962Z,100930.13
2022-11-24T12:38:21.584Z,100934.63
2022-11-24T12:41:40.524Z,100931.94
2022-11-24T12:44:11.653Z,100936.47
2022-11-24T12:47:03.824Z,100930.25
2022-11-24T12:49:33.900Z,100934.63
2022-11-24T12:52:22.897Z,100935.47
2022-11-24T12:54:50.339Z,100925.75
2022-11-24T12:57:45.306Z,100923.06
2022-11-24T13:00:30.869Z,100938.16
2022-11-24T13:03:00.729Z,100936.47
2022-11-24T13:05:53.911Z,100931.94
2022-11-24T13:08:22.136Z,100933.78
2022-11-24T13:10:57.893Z,100930.13
2022-11-24T13:13:49.864Z,100929.28
2022-11-24T13:19:21.481Z,100925.75
2022-11-24T13:21:56.902Z,100920.28
2022-11-24T13:24:30.908Z,100911.41
2022-11-24T13:27:13.636Z,100920.28
2022-11-24T13:29:45.721Z,100906.91
2022-11-24T13:32:13.084Z,100917.59
2022-11-24T13:34:43.286Z,100903.38
2022-11-24T13:37:31.575Z,100909.56
2022-11-24T13:40:12.001Z,100908.72
2022-11-24T13:42:54.651Z,100921.13
2022-11-24T13:45:41.118Z,100918.44
2022-11-24T13:48:21.697Z,100917.59
2022-11-24T13:50:58.237Z,100915.78
2022-11-24T13:53:42.526Z,100921.13
2022-11-24T13:56:12.542Z,100918.44
2022-11-24T13:58:42.086Z,100923.78
2022-11-24T14:01:18.494Z,100922.00
2022-11-24T14:07:02.421Z,100921.13
2022-11-24T14:09:42.077Z,100920.28
2022-11-24T14:12:23.026Z,100922.84
2022-11-24T14:14:57.346Z,100920.28
2022-11-24T14:17:28.224Z,100928.31
2022-11-24T14:19:57.442Z,100927.34
2022-11-24T14:22:40.050Z,100929.16
2022-11-24T14:25:21.252Z,100925.63
2022-11-24T14:27:48.498Z,100920.28
2022-11-24T14:30:19.200Z,100927.44
2022-11-24T14:33:03.765Z,100925.63
2022-11-24T14:35:33.505Z,100924.78
2022-11-24T14:38:05.518Z,100926.47
2022-11-24T14:40:43.354Z,100923.78
2022-11-24T14:43:16.314Z,100932.81
2022-11-24T14:45:59.406Z,100937.19
2022-11-24T14:48:30.334Z,100938.91
2022-11-24T14:51:18.113Z,100931.81
2022-11-24T14:53:49.261Z,100934.50
2022-11-24T14:56:36.881Z,100947.03
2022-11-24T14:59:20.078Z,100940.84
2022-11-24T15:01:47.737Z,100947.03
2022-11-24T15:05:00.952Z,100955.91
2022-11-24T15:07:31.574Z,100957.72
2022-11-24T15:10:01.895Z,100961.25
2022-11-24T15:12:37.402Z,100966.63
2022-11-24T15:15:13.692Z,100973.78
2022-11-24T15:17:57.133Z,100966.63
2022-11-24T15:20:30.290Z,100977.31
2022-11-24T15:23:16.270Z,100968.44
2022-11-24T15:25:43.568Z,100971.13
2022-11-24T15:28:12.034Z,100968.44
2022-11-24T15:30:39.526Z,100961.25
2022-11-24T15:33:19.003Z,100974.78
2022-11-24T15:35:46.667Z,100972.94
2022-11-24T15:38:14.925Z,100972.94
2022-11-24T15:40:44.587Z,100972.94
2022-11-24T15:43:39.931Z,100972.09
2022-11-24T15:46:09.018Z,100972.94
2022-11-24T15:48:36.543Z,100972.94
2022-11-24T15:51:07.005Z,100978.28
2022-11-24T15:53:46.672Z,100981.94
2022-11-24T15:56:29.223Z,100997.03
2022-11-24T15:58:56.713Z,101002.50
2022-11-24T16:01:27.674Z,101008.69
2022-11-24T16:03:54.998Z,101008.69
2022-11-24T16:06:25.066Z,101004.31
2022-11-24T16:08:53.791Z,101002.50
2022-11-24T16:11:22.056Z,101007.00
2022-11-24T16:13:52.992Z,101005.19
2022-11-24T16:16:22.905Z,101005.19
2022-11-24T16:18:50.680Z,101016.72
2022-11-24T16:21:18.116Z,101014.06
2022-11-24T16:23:46.565Z,101009.56
2022-11-24T16:26:13.960Z,101003.34
2022-11-24T16:28:42.030Z,100999.81
2022-11-24T16:31:09.587Z,100999.69
2022-11-24T16:33:40.613Z,100999.69
2022-11-24T16:36:08.339Z,101013.94
2022-11-24T16:38:35.889Z,101006.88
2022-11-24T16:41:03.197Z,101006.88
2022-11-24T16:43:31.027Z,101002.38
2022-11-24T16:46:19.347Z,101001.53
2022-11-24T16:48:48.564Z,101007.72
2022-11-24T16:51:17.105Z,101006.75
2022-11-24T16:53:44.538Z,101003.22
2022-11-24T16:56:12.573Z,100999.69
2022-11-24T16:58:41.171Z,100995.19
2022-11-24T17:01:13.075Z,101002.38
2022-11-24T17:03:40.676Z,101016.59
2022-11-24T17:06:10.399Z,101014.78
2022-11-24T17:08:39.773Z,101018.44
2022-11-24T17:11:13.078Z,101027.44
2022-11-24T17:13:41.247Z,101041.66
2022-11-24T17:16:11.501Z,101041.66
2022-11-24T17:18:39.225Z,101045.19
2022-11-24T17:21:10.196Z,101048.72
2022-11-24T17:23:38.158Z,101050.53
2022-11-24T17:26:07.964Z,101046.16
2022-11-24T17:28:36.490Z,101052.38
2022-11-24T17:31:22.297Z,101051.50
2022-11-24T17:33:55.660Z,101052.38
2022-11-24T17:36:23.667Z,101059.53
2022-11-24T17:38:51.125Z,101063.19
2022-11-24T17:41:19.495Z,101062.22
2022-11-24T17:43:51.033Z,101071.22
2022-11-24T17:46:19.028Z,101076.56
2022-11-24T17:48:46.971Z,101073.91
2022-11-24T17:51:16.662Z,101088.97
2022-11-24T17:53:46.738Z,101088.13
2022-11-24T17:56:16.564Z,101092.63
2022-11-24T17:58:44.497Z,101088.13
2022-11-24T18:01:13.202Z,101089.97
2022-11-24T18:03:41.758Z,101094.34
2022-11-24T18:06:11.460Z,101100.66
2022-11-24T18:08:41.095Z,101102.47
2022-11-24T18:11:12.352Z,101110.50
2022-11-24T18:13:56.750Z,101098.84
2022-11-24T18:16:30.077Z,101107.72
2022-11-24T18:19:08.468Z,101108.69
2022-11-24T18:21:38.181Z,101113.91
2022-11-24T18:24:06.228Z,101120.13
2022-11-24T18:26:33.605Z,101116.59
2022-11-24T18:29:00.811Z,101120.97
2022-11-24T18:31:29.405Z,101120.88
2022-11-24T18:33:56.984Z,101121.81
2022-11-24T18:36:29.942Z,101120.88
2022-11-24T18:39:00.041Z,101124.41
2022-11-24T18:41:27.235Z,101127.06
2022-11-24T18:43:54.470Z,101127.94
2022-11-24T18:46:21.969Z,101125.25
2022-11-24T18:48:51.388Z,101123.44
2022-11-24T18:51:18.800Z,101119.91
2022-11-24T18:53:46.671Z,101126.94
2022-11-24T18:56:16.461Z,101118.06
2022-11-24T18:58:44.542Z,101127.81
2022-11-24T19:01:17.101Z,101121.59
2022-11-24T19:03:48.934Z,101128.78
2022-11-24T19:06:20.117Z,101129.63
2022-11-24T19:08:48.340Z,101129.63
2022-11-24T19:11:20.674Z,101134.13
2022-11-24T19:13:49.109Z,101127.94
2022-11-24T19:16:17.758Z,101130.59
2022-11-24T19:18:48.921Z,101137.66
2022-11-24T19:21:20.715Z,101138.50
2022-11-24T19:23:47.986Z,101140.34
2022-11-24T19:26:15.684Z,101142.16
2022-11-24T19:28:43.940Z,101136.81
2022-11-24T19:31:13.949Z,101128.78
2022-11-24T19:33:42.133Z,101123.44
2022-11-24T19:36:15.724Z,101129.63
2022-11-24T19:38:50.025Z,101124.28
2022-11-24T19:41:19.599Z,101126.09
2022-11-24T19:43:47.960Z,101124.28
2022-11-24T19:46:18.055Z,101124.28
2022-11-24T19:48:50.474Z,101121.59
2022-11-24T19:51:19.942Z,101122.56
2022-11-24T19:53:47.626Z,101126.94
2022-11-24T19:56:20.520Z,101126.94
2022-11-24T19:58:49.061Z,101132.31
2022-11-24T20:01:17.856Z,101128.78
2022-11-24T20:03:46.771Z,101140.34
2022-11-24T20:06:15.212Z,101136.81
2022-11-24T20:08:43.038Z,101141.19
2022-11-24T20:11:16.814Z,101140.34
2022-11-24T20:13:45.930Z,101146.53
2022-11-24T20:16:26.422Z,101147.50
2022-11-24T20:18:59.204Z,101141.31
2022-11-24T20:21:28.868Z,101143.13
2022-11-24T20:23:58.684Z,101138.63
2022-11-24T20:26:29.293Z,101142.28
2022-11-24T20:28:57.860Z,101137.78
2022-11-24T20:31:36.107Z,101139.47
2022-11-24T20:34:05.234Z,101139.47
2022-11-24T20:36:34.076Z,101139.47
2022-11-24T20:39:03.838Z,101154.69
2022-11-24T20:41:33.940Z,101158.22
2022-11-24T20:44:05.083Z,101159.06
2022-11-24T20:46:34.588Z,101160.03
2022-11-24T20:49:03.605Z,101161.75
2022-11-24T20:51:34.131Z,101163.56
2022-11-24T20:54:03.987Z,101162.72
2022-11-24T20:56:33.637Z,101161.88
2022-11-24T20:59:01.525Z,101171.59
2022-11-24T21:01:31.691Z,101172.44
2022-11-24T21:03:59.789Z,101171.59
2022-11-24T21:06:28.363Z,101170.75
2022-11-24T21:09:00.390Z,101173.31
2022-11-24T21:11:30.149Z,101169.91
2022-11-24T21:13:58.122Z,101177.81
2022-11-24T21:16:27.944Z,101176.81
2022-11-24T21:18:58.327Z,101179.50
2022-11-24T21:21:28.291Z,101176.81
2022-11-24T21:23:55.559Z,101169.69
2022-11-24T21:26:22.843Z,101185.75
2022-11-24T21:28:50.076Z,101186.59
2022-11-24T21:31:23.219Z,101183.91
2022-11-24T21:33:51.552Z,101197.28
2022-11-24T21:36:24.804Z,101195.47
2022-11-24T21:38:57.348Z,101195.56
2022-11-24T21:41:27.098Z,101200.81
2022-11-24T21:43:57.895Z,101198.16
2022-11-24T21:46:25.235Z,101195.47
2022-11-24T21:48:52.618Z,101191.09
2022-11-24T21:51:21.528Z,101199.97
2022-11-24T21:53:49.038Z,101194.63
2022-11-24T21:56:18.626Z,101199.97
2022-11-24T21:58:47.889Z,101206.25
2022-11-24T22:01:16.998Z,101208.00
2022-11-24T22:03:45.777Z,101204.47
2022-11-24T22:06:13.677Z,101205.31
2022-11-24T22:08:41.042Z,101211.63
2022-11-24T22:11:12.554Z,101210.78
2022-11-24T22:13:40.563Z,101217.94
2022-11-24T22:16:11.027Z,101227.69
2022-11-24T22:18:40.656Z,101225.97
2022-11-24T22:21:11.578Z,101211.75
2022-11-24T22:23:39.092Z,101212.59
2022-11-24T22:26:11.262Z,101218.78
2022-11-24T22:28:39.161Z,101227.69
2022-11-24T22:31:08.671Z,101219.66
2022-11-24T22:33:36.125Z,101229.41
2022-11-24T22:36:03.882Z,101222.22
2022-11-24T22:38:32.088Z,101228.44
2022-11-24T22:41:05.333Z,101230.25
2022-11-24T22:43:33.331Z,101233.78
2022-11-24T22:46:08.703Z,101226.75
2022-11-24T22:48:36.112Z,101241.81
2022-11-24T22:51:07.829Z,101249.84
2022-11-24T22:53:35.378Z,101254.22
2022-11-24T22:56:04.723Z,101260.56
2022-11-24T22:58:33.339Z,101265.91
2022-11-24T23:01:10.058Z,101266.75
2022-11-24T23:03:38.352Z,101271.25
2022-11-24T23:06:09.816Z,101262.38
2022-11-24T23:08:37.477Z,101260.56
2022-11-24T23:11:08.473Z,101257.88
2022-11-24T23:13:36.156Z,101256.06
2022-11-24T23:16:15.575Z,101251.56
2022-11-24T23:18:43.684Z,101250.69
2022-11-24T23:21:22.837Z,101240.97
2022-11-24T23:23:52.069Z,101241.81
2022-11-24T23:26:23.130Z,101233.78
2022-11-24T23:28:50.546Z,101236.47
2022-11-24T23:31:21.506Z,101235.63
2022-11-24T23:33:48.818Z,101240.13
2022-11-24T23:36:18.274Z,101243.66
2022-11-24T23:38:46.326Z,101227.59
2022-11-24T23:41:16.078Z,101235.69
2022-11-24T23:43:43.882Z,101228.56
2022-11-24T23:46:25.354Z,101224.16
2022-11-24T23:48:54.246Z,101220.63
2022-11-24T23:51:23.567Z,101218.06
2022-11-24T23:53:51.914Z,101220.63
2022-11-24T23:56:21.527Z,101218.06
2022-11-24T23:58:49.543Z,101217.22
